WetterOnline ( https://www.wetteronline.de )

Wetter aktuell Neuwied

Aktuelles Wetter: Andernach (75m)

6-stündlich | Neueste Meldungen
Ortszeit Temperatur Wetter
So, 08.12. 13:00 11.4° C Sprühregen
So, 08.12. 7:00 10.2° C bedeckt
So, 08.12. 1:00 7.2° C bedeckt
Sa, 07.12. 19:00 8.7° C bedeckt
Sa, 07.12. 13:00 10.0° C bedeckt
Sa, 07.12. 7:00 8.1° C wolkig
Sa, 07.12. 1:00 7.6° C bewölkt
Fr, 06.12. 19:00 5.9° C bedeckt
Ortszeit Temperatur Wetter
So, 08.12. 17:30 10.9° C bedeckt
So, 08.12. 17:20 10.9° C bedeckt
So, 08.12. 17:10 11.1° C bedeckt
So, 08.12. 17:00 10.9° C bewölkt
So, 08.12. 16:50 10.9° C bewölkt
So, 08.12. 16:40 10.9° C bedeckt
So, 08.12. 16:30 11.5° C leichter Regen
So, 08.12. 16:00 11.7° C bewölkt
So, 08.12. 15:30 11.6° C bewölkt
So, 08.12. 15:00 11.4° C bewölkt
So, 08.12. 14:30 11.2° C bedeckt
Ortszeit Relative Feuchte Sichtweite
So, 08.12. 13:00 79% 55 km
So, 08.12. 7:00 76% >70 km
So, 08.12. 1:00 90% 30 km
Sa, 07.12. 19:00 79% 45 km
Sa, 07.12. 13:00 73% 55 km
Sa, 07.12. 7:00 78% 60 km
Sa, 07.12. 1:00 84% 65 km
Fr, 06.12. 19:00 85% 40 km
Ortszeit Relative Feuchte Sichtweite
So, 08.12. 17:30 66% 40 km
So, 08.12. 17:20 66% -
So, 08.12. 17:10 66% -
So, 08.12. 17:00 72% 50 km
So, 08.12. 16:50 72% -
So, 08.12. 16:40 75% -
So, 08.12. 16:30 89% 5.0 km
So, 08.12. 16:00 83% >70 km
So, 08.12. 15:30 83% 55 km
So, 08.12. 15:00 85% 60 km
So, 08.12. 14:30 85% 55 km
Ortszeit Niederschlagsmenge Niederschlagsart
So, 08.12. 13:00 0.1 l/m2 in 6 Std. Regen
So, 08.12. 7:00 0.1 l/m2 in 12 Std. Sprühregen
So, 08.12. 1:00 0.1 l/m2 in 6 Std. Regen
Sa, 07.12. 19:00 0.1 l/m2 in 12 Std. Regen
Sa, 07.12. 13:00 0.1 l/m2 in 6 Std. Regen
Sa, 07.12. 7:00 0.1 l/m2 in 12 Std. Regen
Sa, 07.12. 1:00 0.1 l/m2 in 6 Std. Regen
Fr, 06.12. 19:00 2 l/m2 in 12 Std. Regen
Ortszeit Niederschlagsmenge Niederschlagsart
So, 08.12. 17:30 0.0 l/m2 in 1 Std. -
So, 08.12. 17:20 keine Meldung -
So, 08.12. 17:10 keine Meldung -
So, 08.12. 17:00 0.3 l/m2 in 1 Std. Regen
So, 08.12. 16:50 keine Meldung -
So, 08.12. 16:40 keine Meldung -
So, 08.12. 16:30 0.3 l/m2 in 1 Std. -
So, 08.12. 16:00 0.1 l/m2 in 1 Std. Regen
So, 08.12. 15:30 0.0 l/m2 in 1 Std. -
So, 08.12. 15:00 0.1 l/m2 in 1 Std. Sprühregen
So, 08.12. 14:30 0.1 l/m2 in 1 Std. Schnee
Ortszeit Stärke Spitze Richtung
km/h Bft. km/h Grad Sektor
So, 08.12. 13:00 19 3 69 230° SW
So, 08.12. 7:00 13 3 26 210° SW
So, 08.12. 1:00 0 0 22 - -
Sa, 07.12. 19:00 11 2 22 210° SW
Sa, 07.12. 13:00 11 2 22 230° SW
Sa, 07.12. 7:00 11 2 40 240° SW
Sa, 07.12. 1:00 18 3 54 210° SW
Fr, 06.12. 19:00 13 3 28 200° S
Ortszeit Stärke Spitze Richtung
km/h Bft. km/h Grad Sektor
So, 08.12. 17:30 11 2 24 260° W
So, 08.12. 17:20 11 2 - 260° W
So, 08.12. 17:10 11 2 - 260° W
So, 08.12. 17:00 11 2 40 260° W
So, 08.12. 16:50 11 2 - 260° W
So, 08.12. 16:40 11 2 - 280° W
So, 08.12. 16:30 19 3 30 230° SW
So, 08.12. 16:00 11 2 22 200° S
So, 08.12. 15:30 9 2 19 210° SW
So, 08.12. 15:00 9 2 20 200° S
So, 08.12. 14:30 11 2 22 190° S
Ortszeit Untergrenze Bedeckung Gattung
total tief tief mittel hoch
So, 08.12. 13:00 600 m 7/8 7/8 - - -
So, 08.12. 7:00 690 m 8/8 8/8 - - -
So, 08.12. 1:00 990 m 8/8 8/8 - - -
Sa, 07.12. 19:00 1050 m 8/8 8/8 - - -
Sa, 07.12. 13:00 1380 m 8/8 8/8 - - -
Sa, 07.12. 7:00 1800 m 6/8 6/8 - - -
Sa, 07.12. 1:00 570 m 7/8 7/8 - - -
Fr, 06.12. 19:00 540 m 8/8 8/8 - - -
Ortszeit Bedeckungsgrad in Achtel und Wolkenuntergrenze
So, 08.12. 17:30 8(1410m)
So, 08.12. 17:20 8(1410m)
So, 08.12. 17:10 8(1350m)
So, 08.12. 17:00 1(840m) 7(1260m)
So, 08.12. 16:50 1(840m) 7(1260m)
So, 08.12. 16:40 1(540m) 1(750m) 8(1170m)
So, 08.12. 16:30 4(600m) 7(1020m) 8(1260m)
So, 08.12. 16:00 7(630m) 7(840m)
So, 08.12. 15:30 8(630m) 7(750m)
So, 08.12. 15:00 7(570m) 8(720m)
So, 08.12. 14:30 7(600m) 8(750m)
Ortszeit Luftdruck NN (hPa) Tendenz (hPa in 3 Std.)
So, 08.12. 13:00 1005 - 2,4
So, 08.12. 7:00 1009 - 3,1
So, 08.12. 1:00 1016 - 1,3
Sa, 07.12. 19:00 1017 + 1,1
Sa, 07.12. 13:00 1015 + 0,5
Sa, 07.12. 7:00 1013 + 2,3
Sa, 07.12. 1:00 1009 - 0,4
Fr, 06.12. 19:00 1010 - 2,2
Ortszeit Luftdruck NN (hPa) Tendenz (hPa in 3 Std.)
So, 08.12. 17:30 1003 - 1,0
So, 08.12. 17:20 1003 keine Meldung
So, 08.12. 17:10 1003 keine Meldung
So, 08.12. 17:00 1003 - 1,4
So, 08.12. 16:50 1003 keine Meldung
So, 08.12. 16:40 1004 keine Meldung
So, 08.12. 16:30 1003 - 1,7
So, 08.12. 16:00 1003 - 2,2
So, 08.12. 15:30 1003 - 2,3
So, 08.12. 15:00 1004 - 2,3
So, 08.12. 14:30 1004 - 1,5
Ortszeit Schneehöhe (cm)
So, 08.12. 13:00 0
So, 08.12. 7:00 0
So, 08.12. 1:00 0
Sa, 07.12. 19:00 0
Sa, 07.12. 13:00 0
Sa, 07.12. 7:00 0
Sa, 07.12. 1:00 0
Fr, 06.12. 19:00 0
Ortszeit Schneehöhe (cm)
So, 08.12. 17:30 0
So, 08.12. 17:20 0
So, 08.12. 17:10 0
So, 08.12. 17:00 0
So, 08.12. 16:50 0
So, 08.12. 16:40 0
So, 08.12. 16:30 0
So, 08.12. 16:00 0
So, 08.12. 15:30 0
So, 08.12. 15:00 0
So, 08.12. 14:30 0
Link zu dieser Seite / Seite empfehlen

Das Wetter in ...